createdAt,value
2023-02-03T00:01:31.391Z,99.90
2023-02-03T00:03:58.102Z,99.90
2023-02-03T00:06:25.420Z,99.90
2023-02-03T00:08:56.910Z,99.90
2023-02-03T00:11:23.805Z,99.90
2023-02-03T00:13:50.471Z,99.90
2023-02-03T00:16:17.185Z,99.90
2023-02-03T00:18:43.877Z,99.90
2023-02-03T00:21:10.804Z,99.90
2023-02-03T00:23:37.517Z,99.90
2023-02-03T00:26:12.365Z,99.90
2023-02-03T00:28:39.194Z,99.90
2023-02-03T00:31:06.694Z,99.90
2023-02-03T00:33:33.849Z,99.90
2023-02-03T00:36:06.116Z,99.90
2023-02-03T00:38:32.825Z,99.90
2023-02-03T00:40:59.559Z,99.90
2023-02-03T00:43:26.537Z,99.90
2023-02-03T00:45:53.229Z,99.90
2023-02-03T00:48:20.686Z,99.90
2023-02-03T00:50:47.723Z,99.90
2023-02-03T00:53:15.227Z,99.90
2023-02-03T00:55:43.785Z,99.90
2023-02-03T00:58:10.588Z,99.90
2023-02-03T01:00:37.259Z,99.90
2023-02-03T01:03:04.221Z,99.90
2023-02-03T01:05:31.095Z,99.90
2023-02-03T01:07:57.855Z,99.90
2023-02-03T01:10:24.969Z,99.90
2023-02-03T01:12:52.040Z,99.90
2023-02-03T01:15:18.903Z,99.90
2023-02-03T01:17:45.543Z,99.90
2023-02-03T01:20:13.823Z,99.90
2023-02-03T01:22:40.682Z,99.90
2023-02-03T01:25:08.034Z,99.90
2023-02-03T01:27:34.785Z,99.90
2023-02-03T01:30:01.494Z,99.90
2023-02-03T01:32:28.221Z,99.90
2023-02-03T01:34:54.883Z,99.90
2023-02-03T01:37:21.537Z,99.90
2023-02-03T01:39:48.211Z,99.90
2023-02-03T01:42:16.565Z,99.90
2023-02-03T01:44:51.142Z,99.90
2023-02-03T01:47:27.846Z,99.90
2023-02-03T01:50:15.515Z,99.90
2023-02-03T01:52:44.604Z,99.90
2023-02-03T01:55:16.517Z,99.90
2023-02-03T01:57:51.285Z,99.90
2023-02-03T02:00:18.749Z,99.90
2023-02-03T02:02:48.023Z,99.90
2023-02-03T02:05:30.467Z,99.90
2023-02-03T02:07:59.990Z,99.90
2023-02-03T02:10:27.273Z,99.90
2023-02-03T02:12:57.429Z,99.90
2023-02-03T02:15:34.977Z,99.90
2023-02-03T02:18:25.641Z,99.90
2023-02-03T02:21:16.497Z,99.90
2023-02-03T02:24:05.223Z,99.90
2023-02-03T02:26:58.768Z,99.90
2023-02-03T02:30:01.968Z,99.90
2023-02-03T02:32:59.826Z,99.90
2023-02-03T02:35:51.696Z,99.90
2023-02-03T02:38:30.532Z,99.90
2023-02-03T02:41:14.399Z,99.90
2023-02-03T02:43:45.959Z,99.90
2023-02-03T02:46:18.309Z,99.90
2023-02-03T02:48:52.552Z,99.90
2023-02-03T02:51:21.303Z,99.90
2023-02-03T02:53:59.979Z,99.90
2023-02-03T02:56:29.322Z,99.90
2023-02-03T02:58:59.739Z,99.90
2023-02-03T03:01:26.767Z,99.90
2023-02-03T03:03:53.611Z,99.90
2023-02-03T03:06:28.147Z,99.90
2023-02-03T03:08:57.879Z,99.90
2023-02-03T03:11:32.107Z,99.90
2023-02-03T03:13:59.580Z,99.90
2023-02-03T03:16:29.714Z,99.90
2023-02-03T03:18:58.921Z,99.90
2023-02-03T03:21:34.958Z,99.90
2023-02-03T03:24:07.189Z,99.90
2023-02-03T03:26:47.867Z,99.90
2023-02-03T03:29:20.660Z,99.90
2023-02-03T03:31:48.267Z,99.90
2023-02-03T03:34:16.075Z,99.90
2023-02-03T03:37:08.541Z,99.90
2023-02-03T03:39:57.216Z,99.90
2023-02-03T03:42:34.513Z,99.90
2023-02-03T03:45:07.293Z,99.90
2023-02-03T03:47:38.572Z,99.90
2023-02-03T03:50:10.802Z,99.90
2023-02-03T03:52:39.041Z,99.90
2023-02-03T03:55:09.884Z,99.90
2023-02-03T03:57:59.308Z,99.90
2023-02-03T04:00:31.147Z,99.90
2023-02-03T04:03:05.612Z,99.90
2023-02-03T04:05:33.229Z,99.90
2023-02-03T04:08:00.865Z,99.90
2023-02-03T04:10:34.350Z,99.90
2023-02-03T04:13:01.292Z,99.90
2023-02-03T04:15:28.556Z,99.90
2023-02-03T04:17:57.185Z,99.90
2023-02-03T04:20:25.374Z,99.90
2023-02-03T04:22:52.388Z,99.90
2023-02-03T04:25:19.106Z,99.90
2023-02-03T04:27:45.792Z,99.90
2023-02-03T04:30:13.773Z,99.90
2023-02-03T04:32:40.762Z,99.90
2023-02-03T04:35:08.401Z,99.90
2023-02-03T04:37:35.082Z,99.90
2023-02-03T04:40:01.853Z,99.90
2023-02-03T04:42:28.546Z,99.90
2023-02-03T04:44:55.281Z,99.90
2023-02-03T04:47:21.963Z,99.90
2023-02-03T04:49:48.654Z,99.90
2023-02-03T04:52:15.753Z,99.90
2023-02-03T04:54:42.504Z,99.90
2023-02-03T04:57:09.270Z,99.90
2023-02-03T04:59:35.944Z,99.90
2023-02-03T05:02:04.110Z,99.90
2023-02-03T05:04:31.280Z,99.90
2023-02-03T05:06:58.097Z,99.90
2023-02-03T05:09:25.563Z,99.90
2023-02-03T05:11:52.907Z,99.90
2023-02-03T05:14:20.236Z,99.90
2023-02-03T05:16:47.293Z,99.90
2023-02-03T05:19:14.136Z,99.90
2023-02-03T05:21:40.799Z,99.90
2023-02-03T05:24:08.179Z,99.90
2023-02-03T05:26:37.742Z,99.90
2023-02-03T05:29:04.535Z,99.90
2023-02-03T05:31:31.242Z,99.90
2023-02-03T05:33:57.973Z,99.90
2023-02-03T05:36:25.757Z,99.90
2023-02-03T05:38:52.464Z,99.90
2023-02-03T05:41:37.673Z,99.90
2023-02-03T05:44:04.607Z,99.90
2023-02-03T05:46:31.300Z,99.90
2023-02-03T05:48:57.977Z,99.90
2023-02-03T05:51:25.116Z,99.90
2023-02-03T05:53:53.089Z,99.90
2023-02-03T05:56:19.816Z,99.90
2023-02-03T05:58:46.490Z,99.90
2023-02-03T06:01:13.204Z,99.90
2023-02-03T06:03:40.019Z,99.90
2023-02-03T06:06:06.870Z,99.90
2023-02-03T06:08:33.568Z,99.90
2023-02-03T06:11:03.040Z,99.90
2023-02-03T06:13:29.776Z,99.90
2023-02-03T06:15:56.531Z,99.90
2023-02-03T06:18:23.545Z,99.90
2023-02-03T06:20:51.028Z,99.90
2023-02-03T06:23:19.172Z,99.90
2023-02-03T06:25:49.027Z,99.90
2023-02-03T06:28:16.316Z,99.90
2023-02-03T06:30:43.452Z,99.90
2023-02-03T06:33:10.362Z,99.90
2023-02-03T06:35:37.022Z,99.90
2023-02-03T06:38:03.697Z,99.90
2023-02-03T06:40:30.769Z,99.90
2023-02-03T06:42:57.742Z,99.90
2023-02-03T06:45:25.076Z,99.90
2023-02-03T06:47:51.866Z,99.90
2023-02-03T06:50:19.100Z,99.90
2023-02-03T06:52:45.897Z,99.90
2023-02-03T06:55:12.589Z,99.90
2023-02-03T06:57:47.378Z,99.90
2023-02-03T07:00:18.604Z,99.90
2023-02-03T07:02:46.567Z,99.90
2023-02-03T07:05:13.394Z,99.90
2023-02-03T07:07:40.127Z,99.90
2023-02-03T07:10:07.458Z,99.90
2023-02-03T07:12:36.446Z,99.90
2023-02-03T07:15:04.850Z,99.90
2023-02-03T07:17:31.837Z,99.90
2023-02-03T07:19:58.815Z,99.90
2023-02-03T07:22:25.572Z,99.90
2023-02-03T07:24:52.282Z,99.90
2023-02-03T07:27:20.329Z,99.90
2023-02-03T07:29:47.104Z,99.90
2023-02-03T07:32:14.205Z,99.90
2023-02-03T07:34:41.063Z,99.90
2023-02-03T07:37:07.832Z,99.90
2023-02-03T07:39:34.570Z,99.90
2023-02-03T07:42:01.389Z,99.90
2023-02-03T07:44:28.134Z,99.90
2023-02-03T07:46:54.987Z,99.90
2023-02-03T07:49:22.078Z,99.90
2023-02-03T07:51:48.817Z,99.90
2023-02-03T07:54:15.507Z,99.90
2023-02-03T07:56:43.257Z,99.90
2023-02-03T07:59:10.020Z,99.90
2023-02-03T08:01:37.028Z,99.90
2023-02-03T08:04:05.656Z,99.90
2023-02-03T08:06:32.959Z,99.90
2023-02-03T08:08:59.914Z,99.90
2023-02-03T08:11:26.822Z,99.90
2023-02-03T08:13:53.497Z,99.90
2023-02-03T08:16:20.294Z,99.90
2023-02-03T08:18:47.014Z,99.90
2023-02-03T08:21:13.750Z,99.90
2023-02-03T08:23:40.528Z,99.90
2023-02-03T08:26:07.339Z,99.90
2023-02-03T08:28:34.446Z,99.90
2023-02-03T08:31:01.467Z,99.90
2023-02-03T08:33:29.117Z,99.90
2023-02-03T08:35:57.002Z,99.90
2023-02-03T08:38:23.728Z,99.90
2023-02-03T08:40:50.530Z,99.90
2023-02-03T08:43:17.268Z,99.90
2023-02-03T08:45:44.168Z,99.90
2023-02-03T08:48:11.012Z,99.90
2023-02-03T08:50:37.693Z,99.90
2023-02-03T08:53:04.601Z,99.90
2023-02-03T08:55:31.407Z,99.90
2023-02-03T08:57:58.115Z,99.90
2023-02-03T09:00:25.338Z,99.90
2023-02-03T09:02:52.483Z,99.90
2023-02-03T09:05:19.357Z,99.90
2023-02-03T09:07:46.121Z,99.90
2023-02-03T09:10:12.897Z,99.90
2023-02-03T09:12:39.739Z,99.90
2023-02-03T09:15:06.860Z,99.90
2023-02-03T09:17:34.461Z,99.90
2023-02-03T09:20:01.237Z,99.90
2023-02-03T09:22:27.948Z,99.90
2023-02-03T09:24:54.829Z,99.90
2023-02-03T09:27:21.492Z,99.90
2023-02-03T09:29:48.207Z,99.90
2023-02-03T09:32:15.743Z,99.90
2023-02-03T09:34:42.763Z,99.90
2023-02-03T09:37:09.663Z,99.90
2023-02-03T09:39:36.358Z,99.90
2023-02-03T09:42:02.996Z,99.90
2023-02-03T09:44:37.411Z,99.90
2023-02-03T09:47:09.785Z,99.90
2023-02-03T09:49:47.257Z,99.90
2023-02-03T09:52:22.802Z,99.90
2023-02-03T09:55:10.769Z,99.90
2023-02-03T09:57:47.323Z,99.90
2023-02-03T10:00:20.924Z,99.90
2023-02-03T10:03:12.523Z,99.90
2023-02-03T10:06:07.598Z,99.90
2023-02-03T10:08:59.693Z,99.90
2023-02-03T10:11:34.114Z,99.90
2023-02-03T10:14:10.173Z,99.90
2023-02-03T10:17:08.602Z,99.90
2023-02-03T10:19:51.082Z,99.90
2023-02-03T10:22:22.891Z,99.90
2023-02-03T10:25:16.416Z,99.90
2023-02-03T10:27:44.379Z,99.90
2023-02-03T10:30:24.822Z,99.90
2023-02-03T10:32:59.596Z,99.80
2023-02-03T10:35:40.436Z,99.90
2023-02-03T10:38:19.018Z,99.90
2023-02-03T10:40:46.384Z,98.90
2023-02-03T10:43:31.692Z,99.70
2023-02-03T10:45:59.069Z,98.80
2023-02-03T10:48:25.871Z,99.30
2023-02-03T10:50:53.597Z,99.40
2023-02-03T10:53:24.305Z,98.80
2023-02-03T10:56:00.283Z,98.70
2023-02-03T10:58:28.892Z,99.50
2023-02-03T11:01:05.400Z,99.50
2023-02-03T11:03:32.300Z,98.90
2023-02-03T11:06:17.322Z,98.50
2023-02-03T11:08:49.437Z,98.90
2023-02-03T11:11:28.715Z,98.60
2023-02-03T11:14:04.800Z,97.80
2023-02-03T11:16:33.816Z,97.70
2023-02-03T11:19:17.013Z,98.40
2023-02-03T11:21:51.135Z,98.60
2023-02-03T11:24:29.457Z,98.40
2023-02-03T11:27:04.445Z,98.70
2023-02-03T11:29:34.579Z,98.50
2023-02-03T11:32:19.240Z,98.50
2023-02-03T11:34:58.901Z,99.30
2023-02-03T11:37:27.518Z,97.10
2023-02-03T11:40:22.110Z,97.90
2023-02-03T11:42:59.497Z,97.90
2023-02-03T11:45:26.330Z,98.10
2023-02-03T11:48:16.653Z,97.90
2023-02-03T11:51:04.685Z,97.50
2023-02-03T11:54:01.282Z,97.70
2023-02-03T11:56:48.967Z,97.80
2023-02-03T11:59:45.714Z,97.20
2023-02-03T12:02:34.439Z,97.00
2023-02-03T12:05:36.279Z,96.90
2023-02-03T12:08:18.025Z,96.00
2023-02-03T12:10:53.713Z,96.70
2023-02-03T12:13:39.191Z,96.50
2023-02-03T12:16:32.018Z,97.00
2023-02-03T12:19:10.225Z,96.90
2023-02-03T12:21:44.331Z,97.30
2023-02-03T12:24:33.032Z,97.50
2023-02-03T12:27:17.885Z,97.20
2023-02-03T12:29:59.691Z,97.20
2023-02-03T12:32:40.424Z,96.80
2023-02-03T12:35:39.790Z,96.90
2023-02-03T12:38:41.157Z,96.90
2023-02-03T12:41:17.216Z,96.70
2023-02-03T12:43:50.749Z,95.90
2023-02-03T12:46:31.215Z,96.20
2023-02-03T12:49:04.477Z,96.00
2023-02-03T12:51:54.605Z,95.40
2023-02-03T12:54:30.217Z,95.50
2023-02-03T12:57:07.242Z,96.00
2023-02-03T12:59:36.247Z,96.30
2023-02-03T13:02:28.081Z,95.70
2023-02-03T13:04:59.836Z,96.10
2023-02-03T13:07:41.690Z,95.50
2023-02-03T13:10:34.258Z,95.50
2023-02-03T13:13:03.248Z,95.90
2023-02-03T13:15:35.644Z,94.70
2023-02-03T13:18:19.099Z,95.10
2023-02-03T13:20:46.295Z,94.60
2023-02-03T13:23:15.133Z,94.30
2023-02-03T13:25:57.238Z,93.30
2023-02-03T13:28:29.987Z,93.60
2023-02-03T13:31:21.571Z,93.40
2023-02-03T13:33:56.892Z,93.20
2023-02-03T13:36:38.601Z,93.10
2023-02-03T13:39:20.483Z,91.90
2023-02-03T13:42:24.952Z,92.00
2023-02-03T13:44:56.726Z,92.30
2023-02-03T13:47:31.133Z,92.80
2023-02-03T13:50:06.127Z,93.20
2023-02-03T13:52:35.038Z,93.80
2023-02-03T13:55:03.200Z,93.50
2023-02-03T13:57:34.924Z,93.80
2023-02-03T14:00:07.598Z,94.00
2023-02-03T14:02:52.037Z,94.20
2023-02-03T14:05:42.577Z,94.20
2023-02-03T14:08:27.892Z,94.10
2023-02-03T14:11:32.246Z,94.70
2023-02-03T14:14:08.076Z,94.00
2023-02-03T14:16:47.825Z,94.00
2023-02-03T14:19:29.663Z,93.90
2023-02-03T14:21:59.061Z,94.70
2023-02-03T14:24:40.256Z,94.50
2023-02-03T14:27:26.324Z,95.30
2023-02-03T14:30:16.731Z,95.90
2023-02-03T14:32:57.913Z,95.90
2023-02-03T14:35:32.774Z,95.60
2023-02-03T14:38:04.199Z,95.60
2023-02-03T14:40:38.993Z,95.60
2023-02-03T14:43:30.597Z,95.90
2023-02-03T14:46:21.690Z,95.80
2023-02-03T14:48:54.761Z,95.90
2023-02-03T14:51:44.169Z,96.00
2023-02-03T14:54:14.048Z,96.10
2023-02-03T14:57:20.908Z,95.70
2023-02-03T15:00:00.716Z,96.00
2023-02-03T15:02:31.262Z,96.10
2023-02-03T15:05:13.313Z,96.00
2023-02-03T15:07:46.746Z,96.10
2023-02-03T15:10:30.352Z,96.30
2023-02-03T15:12:58.893Z,96.40
2023-02-03T15:15:28.847Z,96.10
2023-02-03T15:17:58.134Z,95.70
2023-02-03T15:20:47.513Z,96.50
2023-02-03T15:23:23.120Z,96.80
2023-02-03T15:25:55.277Z,96.00
2023-02-03T15:28:23.497Z,96.30
2023-02-03T15:31:13.542Z,96.90
2023-02-03T15:33:44.232Z,96.60
2023-02-03T15:36:20.110Z,96.50
2023-02-03T15:38:58.225Z,96.80
2023-02-03T15:41:26.323Z,97.10
2023-02-03T15:44:02.873Z,96.90
2023-02-03T15:46:39.031Z,97.10
2023-02-03T15:49:11.617Z,97.50
2023-02-03T15:51:44.811Z,97.30
2023-02-03T15:54:23.029Z,96.90
2023-02-03T15:57:01.897Z,96.90
2023-02-03T15:59:33.164Z,97.30
2023-02-03T16:02:02.244Z,97.30
2023-02-03T16:04:31.125Z,97.50
2023-02-03T16:06:59.067Z,97.80
2023-02-03T16:09:30.548Z,97.50
2023-02-03T16:12:23.679Z,97.40
2023-02-03T16:14:50.924Z,96.80
2023-02-03T16:17:25.777Z,97.80
2023-02-03T16:20:13.256Z,96.90
2023-02-03T16:23:04.494Z,97.70
2023-02-03T16:25:33.815Z,97.50
2023-02-03T16:28:22.623Z,97.60
2023-02-03T16:31:16.192Z,97.20
2023-02-03T16:34:06.169Z,97.50
2023-02-03T16:36:52.372Z,97.40
2023-02-03T16:39:37.935Z,97.60
2023-02-03T16:42:32.573Z,97.50
2023-02-03T16:45:17.747Z,98.10
2023-02-03T16:48:05.296Z,98.10
2023-02-03T16:50:52.710Z,99.10
2023-02-03T16:53:24.214Z,98.00
2023-02-03T16:55:53.237Z,97.90
2023-02-03T16:58:20.333Z,98.40
2023-02-03T17:00:49.466Z,98.40
2023-02-03T17:03:20.904Z,98.00
2023-02-03T17:05:48.960Z,97.70
2023-02-03T17:08:17.876Z,97.40
2023-02-03T17:10:45.606Z,97.70
2023-02-03T17:13:12.632Z,98.30
2023-02-03T17:15:44.739Z,98.10
2023-02-03T17:18:12.560Z,98.30
2023-02-03T17:20:40.075Z,98.60
2023-02-03T17:23:06.836Z,98.70
2023-02-03T17:25:37.371Z,99.00
2023-02-03T17:28:06.257Z,98.90
2023-02-03T17:30:35.179Z,98.80
2023-02-03T17:33:03.700Z,99.30
2023-02-03T17:35:30.762Z,99.20
2023-02-03T17:37:58.082Z,99.40
2023-02-03T17:54:11.220Z,99.90
2023-02-03T17:56:38.264Z,99.90
2023-02-03T17:59:05.889Z,99.70
2023-02-03T18:01:33.088Z,99.90
2023-02-03T18:04:02.276Z,99.90
2023-02-03T18:06:32.110Z,99.90
2023-02-03T18:09:01.629Z,99.90
2023-02-03T18:11:30.337Z,99.90
2023-02-03T18:13:57.551Z,99.90
2023-02-03T18:16:27.930Z,99.90
2023-02-03T18:18:56.147Z,99.90
2023-02-03T18:21:24.002Z,99.90
2023-02-03T18:23:51.271Z,99.90
2023-02-03T18:26:19.865Z,99.90
2023-02-03T18:28:47.017Z,99.90
2023-02-03T18:31:17.518Z,99.90
2023-02-03T18:33:47.937Z,99.90
2023-02-03T18:36:16.685Z,99.90
2023-02-03T18:38:45.392Z,99.90
2023-02-03T18:41:16.923Z,99.90
2023-02-03T18:43:43.934Z,99.90
2023-02-03T18:46:14.209Z,99.90
2023-02-03T18:48:40.909Z,99.90
2023-02-03T18:51:09.280Z,99.90
2023-02-03T18:53:36.531Z,99.90
2023-02-03T18:56:09.805Z,99.90
2023-02-03T18:58:39.613Z,99.90
2023-02-03T19:01:06.739Z,99.90
2023-02-03T19:03:34.594Z,99.90
2023-02-03T19:06:01.307Z,99.90
2023-02-03T19:08:28.173Z,99.90
2023-02-03T19:10:55.379Z,99.90
2023-02-03T19:13:22.135Z,99.90
2023-02-03T19:15:49.052Z,99.90
2023-02-03T19:18:16.570Z,99.90
2023-02-03T19:20:44.176Z,99.90
2023-02-03T19:23:14.296Z,99.90
2023-02-03T19:25:41.026Z,99.90
2023-02-03T19:28:14.203Z,99.90
2023-02-03T19:30:44.366Z,99.90
2023-02-03T19:33:11.167Z,99.90
2023-02-03T19:35:38.592Z,99.90
2023-02-03T19:38:05.555Z,99.90
2023-02-03T19:40:32.621Z,99.90
2023-02-03T19:42:59.636Z,99.90
2023-02-03T19:45:26.964Z,99.90
2023-02-03T19:47:53.811Z,99.90
2023-02-03T19:50:20.573Z,99.90
2023-02-03T19:52:48.622Z,99.90
2023-02-03T19:55:16.188Z,99.90
2023-02-03T19:57:42.961Z,99.90
2023-02-03T20:00:10.349Z,99.90
2023-02-03T20:02:38.230Z,99.90
2023-02-03T20:05:05.365Z,99.90
2023-02-03T20:07:33.808Z,99.90
2023-02-03T20:10:00.862Z,99.90
2023-02-03T20:12:27.721Z,99.90
2023-02-03T20:14:54.473Z,99.90
2023-02-03T20:17:21.229Z,99.90
2023-02-03T20:19:47.896Z,99.90
2023-02-03T20:22:14.582Z,99.90
2023-02-03T20:24:41.287Z,99.90
2023-02-03T20:27:07.967Z,99.90
2023-02-03T20:29:34.649Z,99.90
2023-02-03T20:32:04.545Z,99.90
2023-02-03T20:34:31.257Z,99.90
2023-02-03T20:36:59.068Z,99.90
2023-02-03T20:39:26.667Z,99.90
2023-02-03T20:41:53.805Z,99.90
2023-02-03T20:44:20.750Z,99.90
2023-02-03T20:46:47.482Z,99.90
2023-02-03T20:49:17.045Z,99.90
2023-02-03T20:51:43.995Z,99.90
2023-02-03T20:54:20.067Z,99.90
2023-02-03T20:56:47.267Z,99.90
2023-02-03T20:59:17.517Z,99.90
2023-02-03T21:01:44.438Z,99.90
2023-02-03T21:04:31.710Z,99.90
2023-02-03T21:06:58.626Z,99.90
2023-02-03T21:09:27.485Z,99.90
2023-02-03T21:11:55.408Z,99.90
2023-02-03T21:14:33.799Z,99.90
2023-02-03T21:17:00.680Z,99.90
2023-02-03T21:19:33.742Z,99.90
2023-02-03T21:22:17.188Z,99.90
2023-02-03T21:24:50.368Z,99.90
2023-02-03T21:27:29.310Z,99.90
2023-02-03T21:29:58.072Z,99.90
2023-02-03T21:32:38.696Z,99.90
2023-02-03T21:35:31.176Z,99.90
2023-02-03T21:38:03.929Z,99.90
2023-02-03T21:40:34.814Z,99.90
2023-02-03T21:43:03.387Z,99.90
2023-02-03T21:45:41.067Z,99.90
2023-02-03T21:48:30.585Z,99.90
2023-02-03T21:51:01.882Z,99.90
2023-02-03T21:53:33.454Z,99.90
2023-02-03T21:56:20.652Z,99.90
2023-02-03T21:58:48.806Z,99.90
2023-02-03T22:01:18.893Z,99.90
2023-02-03T22:03:49.456Z,99.90
2023-02-03T22:06:20.622Z,99.90
2023-02-03T22:08:49.673Z,99.90
2023-02-03T22:11:21.521Z,99.90
2023-02-03T22:13:48.598Z,99.90
2023-02-03T22:16:17.160Z,99.90
2023-02-03T22:18:45.850Z,99.90
2023-02-03T22:21:12.893Z,99.90
2023-02-03T22:23:40.857Z,99.90
2023-02-03T22:26:09.404Z,99.90
2023-02-03T22:28:36.642Z,99.90
2023-02-03T22:31:07.470Z,99.90
2023-02-03T22:33:35.743Z,99.90
2023-02-03T22:36:03.571Z,99.90
2023-02-03T22:38:30.740Z,99.90
2023-02-03T22:40:57.523Z,99.90
2023-02-03T22:43:24.574Z,99.90
2023-02-03T22:45:51.881Z,99.90
2023-02-03T22:48:18.966Z,99.90
2023-02-03T22:50:45.770Z,99.90
2023-02-03T22:53:13.070Z,99.90
2023-02-03T22:55:40.189Z,99.90
2023-02-03T22:58:07.601Z,99.90
2023-02-03T23:00:35.189Z,99.90
2023-02-03T23:03:02.153Z,99.90
2023-02-03T23:05:29.161Z,99.90
2023-02-03T23:07:55.868Z,99.90
2023-02-03T23:10:25.139Z,99.90
2023-02-03T23:12:52.690Z,99.90
2023-02-03T23:15:19.467Z,99.90
2023-02-03T23:17:46.233Z,99.90
2023-02-03T23:20:14.849Z,99.90
2023-02-03T23:22:41.690Z,99.90
2023-02-03T23:25:09.214Z,99.90
2023-02-03T23:27:35.973Z,99.90
2023-02-03T23:30:04.008Z,99.90
2023-02-03T23:32:30.826Z,99.90
2023-02-03T23:35:16.007Z,99.90
2023-02-03T23:37:42.696Z,99.90
2023-02-03T23:40:10.138Z,99.90
2023-02-03T23:42:37.081Z,99.90
2023-02-03T23:45:08.288Z,99.90
2023-02-03T23:47:35.343Z,99.90
2023-02-03T23:50:02.128Z,99.90
2023-02-03T23:52:35.429Z,99.90
2023-02-03T23:55:17.427Z,99.90
2023-02-03T23:57:44.542Z,99.90
